Sharp, Texas
Current Conditions -  °F | °C
As of 2:15 AM on Monday 22 Dec 2014 (Local Time) from KT35 Reporting Station
Overcast Overcast  
Wind Chill: 57°   Ceiling: 2700
Heat Index: 57°   Visibility: 10mi
Dew Point: 54°   Wind: 14mph
Humidity: 88%   Direction: 200°SSW
Pressure: 29.76"   Gusts: 20mph
Location:  30.8953°N, 97.127°W
Report Text: KT35 220815Z AUTO 20012G17KT 10SM OVC027 14/12 A2976 RMK AO2 T01400121
Loading
Personal Weather Stations






























Interactive Weather Map New forecast layout! Learn more

10-Day Weather Forecast

Advertisements
Track Severe Weather on mobile